Check out our new BloomSky Weather System.

Active alerts


No alerts


Thunder radar  blitzortung!


Rain radar more information rain snow radar


Visit our other weather sites:

Template documentation
and downloads

And another site



Weather Underground History page Text

Daily Summary for October 22, 2017 Units:  English    Metric   Both
« Previous Day
Next Day »
Daily Weekly Monthly Yearly Custom
  High: Low: Average:
Temperature: 77.4 °F 58.8 °F 68.7 °F
Dew Point: 75.7 °F 52.3 °F 65.1 °F
Humidity: 100 % 68 % 89 %
Wind Speed: 14.0 mph 0.0 mph 1.5 mph
Wind Gust: 22.0 mph - -
Wind:- - WSW
Pressure: 30.13 in 29.94 in -
Precipitation: 0.97 in    
Historical Graphs
 
 
Tabular Data for October 22, 2017
Time Temperature Dew Point Pressure Wind Wind Speed Wind Gust Humidity Rainfall Rate (Hourly)
00:00 77.4 °F 75.6 °F 29.94 in Calm   3.0 mph 94 % 0.00 in
00:05 77.2 °F 75.4 °F 29.94 in Calm   3.0 mph 94 % 0.00 in
00:10 77.2 °F 75.4 °F 29.94 in Calm   2.0 mph 94 % 0.00 in
00:15 77.2 °F 75.4 °F 29.94 in Calm   2.0 mph 94 % 0.00 in
00:20 77.0 °F 75.4 °F 29.94 in Calm   2.0 mph 95 % 0.00 in
00:25 77.0 °F 75.4 °F 29.94 in Calm   2.0 mph 95 % 0.00 in
00:30 77.2 °F 75.6 °F 29.94 in Calm   3.0 mph 95 % 0.00 in
00:35 77.2 °F 75.6 °F 29.94 in SE 1.0 mph 3.0 mph 95 % 0.00 in
00:40 77.4 °F 75.7 °F 29.94 in SSE 2.0 mph 4.0 mph 95 % 0.00 in
00:45 77.4 °F 75.7 °F 29.94 in East 1.0 mph 4.0 mph 95 % 0.00 in
00:50 77.4 °F 75.7 °F 29.94 in Calm   4.0 mph 95 % 0.00 in
00:55 77.4 °F 75.7 °F 29.94 in ESE 1.0 mph 4.0 mph 95 % 0.00 in
01:00 77.2 °F 75.6 °F 29.94 in ESE 1.0 mph 4.0 mph 95 % 0.00 in
01:05 77.2 °F 75.6 °F 29.94 in SSE 2.0 mph 4.0 mph 95 % 0.00 in
01:10 77.2 °F 75.6 °F 29.94 in Calm   3.0 mph 95 % 0.00 in
01:15 77.0 °F 75.4 °F 29.95 in ESE 1.0 mph 2.0 mph 95 % 0.00 in
01:20 76.8 °F 75.2 °F 29.95 in Calm   2.0 mph 95 % 0.00 in
01:25 76.8 °F 75.2 °F 29.94 in Calm   1.0 mph 95 % 0.00 in
01:30 76.8 °F 75.2 °F 29.94 in Calm   1.0 mph 95 % 0.00 in
01:35 76.6 °F 75.0 °F 29.94 in Calm   3.0 mph 95 % 0.00 in
01:40 76.6 °F 75.0 °F 29.95 in Calm   3.0 mph 95 % 0.00 in
01:45 76.6 °F 75.0 °F 29.95 in Calm   3.0 mph 95 % 0.00 in
01:50 76.5 °F 75.2 °F 29.95 in Calm   1.0 mph 96 % 0.00 in
01:55 76.5 °F 75.2 °F 29.95 in Calm     96 % 0.00 in
02:01 76.3 °F 75.0 °F 29.96 in Calm     96 % 0.00 in
02:06 76.3 °F 75.0 °F 29.96 in Calm     96 % 0.00 in
02:11 76.3 °F 75.0 °F 29.96 in Calm     96 % 0.00 in
02:16 75.9 °F 74.7 °F 29.95 in Calm   1.0 mph 96 % 0.00 in
02:21 75.9 °F 74.7 °F 29.95 in Calm   1.0 mph 96 % 0.00 in
02:26 75.9 °F 74.7 °F 29.95 in Calm   1.0 mph 96 % 0.00 in
02:31 75.7 °F 74.5 °F 29.95 in Calm   1.0 mph 96 % 0.00 in
02:36 75.6 °F 74.7 °F 29.96 in Calm   1.0 mph 97 % 0.00 in
02:41 75.6 °F 74.7 °F 29.96 in Calm     97 % 0.00 in
02:46 75.4 °F 74.5 °F 29.96 in Calm     97 % 0.00 in
02:51 75.2 °F 74.3 °F 29.95 in Calm     97 % 0.00 in
02:56 75.2 °F 74.3 °F 29.95 in Calm   1.0 mph 97 % 0.00 in
03:01 75.2 °F 74.3 °F 29.94 in Calm   1.0 mph 97 % 0.00 in
03:06 75.2 °F 74.3 °F 29.95 in Calm   1.0 mph 97 % 0.00 in
03:11 75.0 °F 74.5 °F 29.95 in Calm   1.0 mph 98 % 0.00 in
03:16 75.0 °F 74.5 °F 29.95 in Calm     98 % 0.00 in
03:21 75.0 °F 74.5 °F 29.95 in Calm     98 % 0.00 in
03:26 74.8 °F 74.3 °F 29.94 in Calm   1.0 mph 98 % 0.00 in
03:31 74.8 °F 74.3 °F 29.94 in Calm   1.0 mph 98 % 0.00 in
03:36 74.7 °F 74.1 °F 29.94 in Calm   1.0 mph 98 % 0.00 in
03:41 74.5 °F 73.9 °F 29.94 in Calm     98 % 0.00 in
03:46 74.5 °F 73.9 °F 29.95 in Calm     98 % 0.00 in
03:51 74.5 °F 73.9 °F 29.94 in Calm     98 % 0.00 in
03:53 74.5 °F 73.9 °F 29.94 in Calm     98 % 0.00 in
03:58 74.5 °F 73.9 °F 29.95 in Calm     98 % 0.00 in
04:08 74.3 °F 73.8 °F 29.95 in Calm   1.0 mph 98 % 0.00 in
04:13 74.3 °F 73.8 °F 29.95 in Calm   1.0 mph 98 % 0.00 in
04:18 74.1 °F 73.6 °F 29.95 in Calm   1.0 mph 98 % 0.00 in
04:23 74.1 °F 73.6 °F 29.95 in Calm   1.0 mph 98 % 0.00 in
04:28 74.1 °F 73.6 °F 29.95 in Calm   1.0 mph 98 % 0.00 in
04:33 73.9 °F 73.6 °F 29.95 in Calm   1.0 mph 99 % 0.00 in
04:38 73.9 °F 73.6 °F 29.95 in Calm   1.0 mph 99 % 0.00 in
04:43 73.8 °F 73.2 °F 29.95 in Calm   1.0 mph 98 % 0.00 in
04:48 73.6 °F 73.0 °F 29.95 in Calm     98 % 0.00 in
04:53 73.4 °F 72.9 °F 29.96 in Calm     98 % 0.00 in
04:58 73.4 °F 73.0 °F 29.96 in Calm     99 % 0.00 in
05:03 73.6 °F 73.2 °F 29.96 in Calm     99 % 0.00 in
05:08 73.6 °F 73.2 °F 29.95 in Calm     99 % 0.00 in
05:13 73.2 °F 72.7 °F 29.96 in Calm     98 % 0.00 in
05:14 73.2 °F 72.7 °F 29.96 in Calm     98 % 0.00 in
05:24 73.0 °F 72.7 °F 29.96 in Calm     99 % 0.00 in
05:29 73.0 °F 72.7 °F 29.96 in Calm     99 % 0.00 in
05:34 73.0 °F 72.7 °F 29.96 in Calm     99 % 0.00 in
05:39 72.9 °F 72.5 °F 29.95 in Calm     99 % 0.00 in
05:44 72.9 °F 72.5 °F 29.96 in Calm     99 % 0.00 in
05:49 72.9 °F 72.5 °F 29.96 in Calm     99 % 0.00 in
05:54 72.9 °F 72.5 °F 29.96 in Calm     99 % 0.00 in
05:59 72.7 °F 72.3 °F 29.96 in Calm     99 % 0.00 in
06:04 72.9 °F 72.5 °F 29.96 in Calm     99 % 0.00 in
06:09 73.0 °F 72.7 °F 29.95 in SE 1.0 mph   99 % 0.00 in
06:14 73.4 °F 73.0 °F 29.95 in ESE 2.0 mph 2.0 mph 99 % 0.00 in
06:19 73.6 °F 73.2 °F 29.96 in SSE 1.0 mph 3.0 mph 99 % 0.00 in
06:24 73.9 °F 73.6 °F 29.96 in Calm   3.0 mph 99 % 0.00 in
06:29 73.9 °F 73.6 °F 29.96 in Calm   3.0 mph 99 % 0.00 in
06:34 73.9 °F 73.6 °F 29.96 in Calm   3.0 mph 99 % 0.00 in
06:39 73.9 °F 73.6 °F 29.97 in Calm   3.0 mph 99 % 0.00 in
06:44 73.8 °F 73.4 °F 29.97 in Calm   1.0 mph 99 % 0.00 in
06:49 73.8 °F 73.4 °F 29.97 in Calm   1.0 mph 99 % 0.00 in
06:54 73.8 °F 73.4 °F 29.97 in Calm   1.0 mph 99 % 0.00 in
06:59 73.8 °F 73.4 °F 29.98 in NW 1.0 mph 1.0 mph 99 % 0.00 in
07:04 73.8 °F 73.4 °F 29.99 in Calm   1.0 mph 99 % 0.00 in
07:09 73.8 °F 73.4 °F 29.99 in NNW 1.0 mph 2.0 mph 99 % 0.00 in
07:14 73.8 °F 73.4 °F 29.99 in NW 1.0 mph 2.0 mph 99 % 0.00 in
07:20 73.8 °F 73.8 °F 30.00 in NNW 2.0 mph 2.0 mph 100 % 0.00 in
07:24 73.9 °F 73.9 °F 30.00 in NW 3.0 mph 3.0 mph 100 % 0.00 in
07:30 74.1 °F 74.1 °F 30.01 in NW 2.0 mph 3.0 mph 100 % 0.00 in
07:35 71.6 °F 70.7 °F 30.04 in NNW 14.0 mph 14.0 mph 97 % 0.00 in
07:40 66.9 °F 63.9 °F 30.04 in NW 9.0 mph 20.0 mph 90 % 0.00 in
07:45 65.1 °F 62.8 °F 30.06 in SSE 5.0 mph 22.0 mph 92 % 0.00 in
07:50 64.4 °F 62.6 °F 30.06 in WNW 6.0 mph 22.0 mph 94 % 0.00 in
07:55 63.5 °F 62.1 °F 30.05 in SW 8.0 mph 22.0 mph 95 % 0.01 in
08:00 63.0 °F 61.9 °F 30.06 in NW 4.0 mph 18.0 mph 96 % 0.06 in
08:05 62.4 °F 61.5 °F 30.06 in NNW 6.0 mph 18.0 mph 97 % 0.34 in
08:10 62.1 °F 61.5 °F 30.07 in NW 4.0 mph 16.0 mph 98 % 0.43 in
08:15 61.9 °F 61.5 °F 30.08 in North 11.0 mph 16.0 mph 99 % 0.46 in
08:20 61.7 °F 61.3 °F 30.08 in NW 2.0 mph 18.0 mph 99 % 0.52 in
08:25 61.7 °F 61.3 °F 30.08 in North 4.0 mph 18.0 mph 99 % 0.58 in
08:30 61.7 °F 61.3 °F 30.09 in Calm   18.0 mph 99 % 0.64 in
08:35 61.5 °F 61.2 °F 30.09 in North 4.0 mph 11.0 mph 99 % 0.73 in
08:40 61.5 °F 61.2 °F 30.09 in NNW 2.0 mph 11.0 mph 99 % 0.77 in
08:45 61.7 °F 61.7 °F 30.10 in NNW 5.0 mph 11.0 mph 100 % 0.80 in
08:50 61.5 °F 61.5 °F 30.10 in WNW 1.0 mph 9.0 mph 100 % 0.82 in
08:55 61.5 °F 61.5 °F 30.09 in West 2.0 mph 7.0 mph 100 % 0.79 in
09:00 61.5 °F 61.5 °F 30.09 in WSW 2.0 mph 8.0 mph 100 % 0.69 in
09:05 61.5 °F 61.5 °F 30.09 in NNW 2.0 mph 8.0 mph 100 % 0.53 in
09:10 61.5 °F 61.5 °F 30.11 in NNE 2.0 mph 8.0 mph 100 % 0.45 in
09:15 61.5 °F 61.5 °F 30.11 in NNW 2.0 mph 6.0 mph 100 % 0.43 in
09:20 61.5 °F 61.5 °F 30.11 in NE 2.0 mph 6.0 mph 100 % 0.37 in
09:25 61.5 °F 61.5 °F 30.11 in NE 2.0 mph 9.0 mph 100 % 0.32 in
09:30 61.3 °F 61.3 °F 30.11 in North 6.0 mph 9.0 mph 100 % 0.27 in
09:35 61.5 °F 61.5 °F 30.11 in East 5.0 mph 9.0 mph 100 % 0.18 in
09:40 61.3 °F 61.3 °F 30.11 in NNW 3.0 mph 14.0 mph 100 % 0.15 in
09:45 61.3 °F 61.3 °F 30.11 in NNW 1.0 mph 14.0 mph 100 % 0.12 in
09:50 61.2 °F 61.2 °F 30.12 in NE 4.0 mph 14.0 mph 100 % 0.10 in
09:55 61.2 °F 61.2 °F 30.12 in NNW 2.0 mph 7.0 mph 100 % 0.08 in
10:00 61.2 °F 61.2 °F 30.12 in ENE 1.0 mph 7.0 mph 100 % 0.06 in
10:05 61.2 °F 61.2 °F 30.12 in Calm   6.0 mph 100 % 0.05 in
10:06 61.2 °F 61.2 °F 30.11 in NNW 2.0 mph 6.0 mph 100 % 0.05 in
10:11 61.2 °F 61.2 °F 30.10 in North 1.0 mph 11.0 mph 100 % 0.05 in
10:16 61.0 °F 61.0 °F 30.10 in NE 4.0 mph 11.0 mph 100 % 0.05 in
10:21 61.0 °F 61.0 °F 30.11 in NE 4.0 mph 11.0 mph 100 % 0.04 in
10:26 61.0 °F 61.0 °F 30.11 in East 5.0 mph 11.0 mph 100 % 0.04 in
10:31 61.0 °F 61.0 °F 30.10 in SE 2.0 mph 10.0 mph 100 % 0.04 in
10:36 61.0 °F 61.0 °F 30.09 in SE 1.0 mph 12.0 mph 100 % 0.03 in
10:41 61.0 °F 61.0 °F 30.09 in ENE 4.0 mph 12.0 mph 100 % 0.04 in
10:46 60.8 °F 60.8 °F 30.08 in North 7.0 mph 12.0 mph 100 % 0.04 in
10:51 60.8 °F 60.8 °F 30.08 in SE 4.0 mph 12.0 mph 100 % 0.03 in
10:56 60.8 °F 60.8 °F 30.09 in SSE 4.0 mph 12.0 mph 100 % 0.03 in
11:01 60.8 °F 60.8 °F 30.10 in SE 1.0 mph 12.0 mph 100 % 0.03 in
11:06 61.0 °F 61.0 °F 30.12 in SE 5.0 mph 12.0 mph 100 % 0.03 in
11:11 61.2 °F 61.2 °F 30.11 in ESE 1.0 mph 12.0 mph 100 % 0.03 in
11:16 61.2 °F 61.2 °F 30.09 in East 1.0 mph 10.0 mph 100 % 0.02 in
11:21 61.2 °F 61.2 °F 30.09 in SSE 1.0 mph 10.0 mph 100 % 0.02 in
11:26 61.0 °F 61.0 °F 30.09 in ENE 2.0 mph 8.0 mph 100 % 0.02 in
11:31 61.2 °F 61.2 °F 30.07 in Calm   6.0 mph 100 % 0.01 in
11:36 61.2 °F 61.2 °F 30.07 in Calm   6.0 mph 100 % 0.02 in
11:41 61.2 °F 61.2 °F 30.06 in ESE 2.0 mph 6.0 mph 100 % 0.01 in
11:46 61.2 °F 61.2 °F 30.05 in ESE 4.0 mph 8.0 mph 100 % 0.01 in
11:51 61.2 °F 61.2 °F 30.05 in SE 5.0 mph 8.0 mph 100 % 0.01 in
11:56 61.3 °F 61.3 °F 30.05 in SE 1.0 mph 8.0 mph 100 % 0.01 in
12:01 61.3 °F 61.3 °F 30.07 in South 5.0 mph 8.0 mph 100 % 0.01 in
12:06 61.3 °F 61.3 °F 30.08 in NW 2.0 mph 8.0 mph 100 % 0.01 in
12:11 61.3 °F 61.3 °F 30.10 in Calm   6.0 mph 100 % 0.01 in
12:16 61.7 °F 61.7 °F 30.10 in West 1.0 mph 6.0 mph 100 % 0.01 in
12:21 61.7 °F 61.7 °F 30.10 in NNW 3.0 mph 3.0 mph 100 % 0.01 in
12:26 61.9 °F 61.9 °F 30.10 in NW 4.0 mph 6.0 mph 100 % 0.01 in
12:31 62.1 °F 62.1 °F 30.10 in NW 1.0 mph 6.0 mph 100 % 0.01 in
12:36 62.8 °F 62.8 °F 30.10 in NW 3.0 mph 6.0 mph 100 % 0.00 in
12:41 63.3 °F 63.3 °F 30.10 in NW 4.0 mph 7.0 mph 100 % 0.00 in
12:46 63.7 °F 63.7 °F 30.10 in NNW 2.0 mph 7.0 mph 100 % 0.00 in
12:51 64.2 °F 64.2 °F 30.09 in WNW 5.0 mph 7.0 mph 100 % 0.00 in
12:56 64.6 °F 64.6 °F 30.09 in NNW 3.0 mph 6.0 mph 100 % 0.00 in
13:01 64.8 °F 64.4 °F 30.09 in NNW 1.0 mph 7.0 mph 99 % 0.00 in
13:06 65.5 °F 64.6 °F 30.09 in WNW 3.0 mph 7.0 mph 97 % 0.00 in
13:11 65.8 °F 64.0 °F 30.08 in NW 6.0 mph 7.0 mph 94 % 0.00 in
13:16 66.2 °F 63.9 °F 30.08 in NW 5.0 mph 7.0 mph 92 % 0.00 in
13:21 66.7 °F 63.7 °F 30.09 in NW 2.0 mph 7.0 mph 90 % 0.00 in
13:26 68.0 °F 64.9 °F 30.09 in WNW 1.0 mph 7.0 mph 90 % 0.00 in
13:31 68.5 °F 63.1 °F 30.09 in NW 1.0 mph 7.0 mph 83 % 0.00 in
13:36 68.4 °F 63.7 °F 30.08 in NW 2.0 mph 7.0 mph 85 % 0.00 in
13:41 68.7 °F 63.7 °F 30.08 in West 1.0 mph 7.0 mph 84 % 0.00 in
13:46 69.3 °F 63.9 °F 30.08 in NW 3.0 mph 7.0 mph 83 % 0.00 in
13:52 69.1 °F 63.0 °F 30.08 in NW 3.0 mph 7.0 mph 81 % 0.00 in
13:57 69.3 °F 63.5 °F 30.07 in North 3.0 mph 8.0 mph 82 % 0.00 in
14:02 69.3 °F 63.1 °F 30.07 in Calm   8.0 mph 81 % 0.00 in
14:07 69.6 °F 63.9 °F 30.07 in Calm   8.0 mph 82 % 0.00 in
14:12 70.5 °F 64.0 °F 30.07 in NNW 4.0 mph 7.0 mph 80 % 0.00 in
14:17 70.7 °F 64.2 °F 30.07 in NW 1.0 mph 7.0 mph 80 % 0.00 in
14:18 70.7 °F 63.9 °F 30.07 in Calm   7.0 mph 79 % 0.00 in
14:23 70.5 °F 63.7 °F 30.07 in NW 1.0 mph 9.0 mph 79 % 0.00 in
14:28 70.3 °F 63.9 °F 30.07 in NW 3.0 mph 9.0 mph 80 % 0.00 in
14:33 70.3 °F 63.5 °F 30.07 in NW 3.0 mph 9.0 mph 79 % 0.00 in
14:38 70.3 °F 63.5 °F 30.07 in NW 1.0 mph 9.0 mph 79 % 0.00 in
14:43 70.3 °F 63.5 °F 30.07 in WNW 2.0 mph 9.0 mph 79 % 0.00 in
14:45 70.3 °F 63.1 °F 30.07 in NNW 3.0 mph 6.0 mph 78 % 0.00 in
14:50 70.5 °F 63.7 °F 30.07 in NW 1.0 mph 6.0 mph 79 % 0.00 in
14:51 70.5 °F 63.7 °F 30.07 in NW 2.0 mph 6.0 mph 79 % 0.00 in
14:56 70.5 °F 63.7 °F 30.07 in NW 1.0 mph 7.0 mph 79 % 0.00 in
15:01 70.5 °F 63.7 °F 30.07 in NW 2.0 mph 7.0 mph 79 % 0.00 in
15:06 70.5 °F 63.3 °F 30.07 in NW 2.0 mph 7.0 mph 78 % 0.00 in
15:11 70.9 °F 64.0 °F 30.07 in WNW 4.0 mph 6.0 mph 79 % 0.00 in
15:16 71.2 °F 64.0 °F 30.07 in NW 5.0 mph 6.0 mph 78 % 0.00 in
15:21 71.2 °F 63.7 °F 30.07 in NW 4.0 mph 8.0 mph 77 % 0.00 in
15:26 71.2 °F 64.0 °F 30.07 in WNW 4.0 mph 8.0 mph 78 % 0.00 in
15:31 71.1 °F 63.9 °F 30.07 in NW 2.0 mph 8.0 mph 78 % 0.00 in
15:36 71.1 °F 64.2 °F 30.07 in NW 4.0 mph 6.0 mph 79 % 0.00 in
15:41 71.2 °F 64.0 °F 30.07 in North 3.0 mph 6.0 mph 78 % 0.00 in
15:46 71.8 °F 64.2 °F 30.06 in WNW 4.0 mph 6.0 mph 77 % 0.00 in
15:51 72.1 °F 63.9 °F 30.06 in WNW 4.0 mph 8.0 mph 75 % 0.00 in
15:56 72.7 °F 62.8 °F 30.06 in NW 5.0 mph 10.0 mph 71 % 0.00 in
16:01 72.7 °F 62.8 °F 30.06 in NW 4.0 mph 10.0 mph 71 % 0.00 in
16:06 72.3 °F 62.8 °F 30.06 in WNW 3.0 mph 10.0 mph 72 % 0.00 in
16:11 72.3 °F 62.8 °F 30.06 in NW 1.0 mph 9.0 mph 72 % 0.00 in
16:17 72.3 °F 63.1 °F 30.06 in NW 6.0 mph 9.0 mph 73 % 0.00 in
16:22 72.9 °F 63.0 °F 30.06 in WNW 1.0 mph 7.0 mph 71 % 0.00 in
16:27 73.2 °F 62.8 °F 30.06 in NW 2.0 mph 7.0 mph 70 % 0.00 in
16:32 73.6 °F 63.1 °F 30.05 in WNW 4.0 mph 7.0 mph 70 % 0.00 in
16:37 73.9 °F 63.1 °F 30.05 in Calm   7.0 mph 69 % 0.00 in
16:42 73.9 °F 63.9 °F 30.05 in NNW 5.0 mph 6.0 mph 71 % 0.00 in
16:47 74.1 °F 63.7 °F 30.05 in NNE 4.0 mph 8.0 mph 70 % 0.00 in
16:52 74.1 °F 63.7 °F 30.05 in NNW 3.0 mph 10.0 mph 70 % 0.00 in
16:57 73.9 °F 63.5 °F 30.05 in NW 2.0 mph 10.0 mph 70 % 0.00 in
17:02 73.8 °F 63.7 °F 30.05 in WNW 1.0 mph 10.0 mph 71 % 0.00 in
17:07 73.9 °F 63.5 °F 30.05 in West 3.0 mph 7.0 mph 70 % 0.00 in
17:12 74.1 °F 63.3 °F 30.05 in NNW 3.0 mph 7.0 mph 69 % 0.00 in
17:17 73.9 °F 63.1 °F 30.05 in NNE 1.0 mph 6.0 mph 69 % 0.00 in
17:22 73.8 °F 63.3 °F 30.05 in WNW 2.0 mph 7.0 mph 70 % 0.00 in
17:27 73.6 °F 63.7 °F 30.05 in Calm   7.0 mph 71 % 0.00 in
17:32 73.6 °F 63.1 °F 30.05 in West 1.0 mph 7.0 mph 70 % 0.00 in
17:37 73.8 °F 63.0 °F 30.05 in North 3.0 mph 7.0 mph 69 % 0.00 in
17:42 73.6 °F 62.4 °F 30.05 in NW 3.0 mph 6.0 mph 68 % 0.00 in
17:47 73.4 °F 63.0 °F 30.05 in NW 3.0 mph 6.0 mph 70 % 0.00 in
17:52 73.4 °F 63.0 °F 30.05 in NNW 6.0 mph 6.0 mph 70 % 0.00 in
17:57 73.2 °F 62.1 °F 30.05 in NNW 2.0 mph 7.0 mph 68 % 0.00 in
18:02 73.0 °F 62.2 °F 30.06 in NW 2.0 mph 7.0 mph 69 % 0.00 in
18:07 73.0 °F 62.6 °F 30.06 in NW 1.0 mph 7.0 mph 70 % 0.00 in
18:12 72.9 °F 62.1 °F 30.06 in NW 2.0 mph 6.0 mph 69 % 0.00 in
18:17 72.7 °F 62.8 °F 30.06 in NW 2.0 mph 6.0 mph 71 % 0.00 in
18:22 72.5 °F 62.6 °F 30.06 in NNW 1.0 mph 6.0 mph 71 % 0.00 in
18:27 72.1 °F 62.6 °F 30.06 in NW 1.0 mph 6.0 mph 72 % 0.00 in
18:32 72.1 °F 62.6 °F 30.06 in Calm   4.0 mph 72 % 0.00 in
18:37 71.8 °F 62.6 °F 30.06 in Calm   4.0 mph 73 % 0.00 in
18:42 71.4 °F 62.8 °F 30.06 in Calm   4.0 mph 74 % 0.00 in
18:47 70.7 °F 62.4 °F 30.06 in Calm   2.0 mph 75 % 0.00 in
18:52 70.2 °F 62.2 °F 30.06 in Calm   1.0 mph 76 % 0.00 in
18:57 69.4 °F 62.2 °F 30.06 in Calm     78 % 0.00 in
19:03 68.9 °F 62.4 °F 30.07 in Calm     80 % 0.00 in
19:08 68.4 °F 62.6 °F 30.07 in Calm     82 % 0.00 in
19:13 67.8 °F 62.1 °F 30.07 in Calm     82 % 0.00 in
19:18 67.3 °F 62.2 °F 30.07 in Calm     84 % 0.00 in
19:23 66.9 °F 62.2 °F 30.07 in Calm     85 % 0.00 in
19:28 66.6 °F 61.9 °F 30.07 in Calm     85 % 0.00 in
19:33 66.0 °F 61.7 °F 30.07 in Calm     86 % 0.00 in
19:38 65.8 °F 62.2 °F 30.07 in Calm     88 % 0.00 in
19:43 65.5 °F 61.9 °F 30.08 in Calm     88 % 0.00 in
19:48 65.1 °F 61.5 °F 30.08 in Calm     88 % 0.00 in
19:53 64.6 °F 61.3 °F 30.08 in Calm     89 % 0.00 in
19:59 64.2 °F 61.2 °F 30.08 in Calm     90 % 0.00 in
20:01 64.0 °F 61.0 °F 30.08 in Calm     90 % 0.00 in
20:06 63.7 °F 61.0 °F 30.08 in Calm     91 % 0.00 in
20:11 63.5 °F 60.8 °F 30.09 in Calm     91 % 0.00 in
20:16 63.1 °F 60.8 °F 30.09 in Calm     92 % 0.00 in
20:21 63.1 °F 61.2 °F 30.09 in Calm     93 % 0.00 in
20:26 62.8 °F 60.8 °F 30.09 in Calm     93 % 0.00 in
20:31 62.6 °F 60.6 °F 30.09 in Calm     93 % 0.00 in
20:36 62.4 °F 60.6 °F 30.09 in Calm     94 % 0.00 in
20:41 62.4 °F 61.0 °F 30.09 in Calm     95 % 0.00 in
20:47 62.4 °F 61.0 °F 30.09 in Calm     95 % 0.00 in
20:52 62.4 °F 61.0 °F 30.10 in Calm     95 % 0.00 in
20:57 62.2 °F 60.8 °F 30.10 in Calm     95 % 0.00 in
21:02 62.1 °F 60.3 °F 30.10 in WSW 1.0 mph   94 % 0.00 in
21:07 63.0 °F 59.7 °F 30.10 in NW 3.0 mph 4.0 mph 89 % 0.00 in
21:12 64.9 °F 57.6 °F 30.10 in NW 3.0 mph 7.0 mph 77 % 0.00 in
21:17 66.0 °F 56.7 °F 30.11 in NW 2.0 mph 8.0 mph 72 % 0.00 in
21:22 66.4 °F 55.9 °F 30.11 in NW 3.0 mph 8.0 mph 69 % 0.00 in
21:27 66.4 °F 55.6 °F 30.11 in NW 2.0 mph 8.0 mph 68 % 0.00 in
21:32 66.2 °F 55.4 °F 30.11 in NW 2.0 mph 5.0 mph 68 % 0.00 in
21:37 66.0 °F 55.6 °F 30.12 in WNW 1.0 mph 4.0 mph 69 % 0.00 in
21:42 65.7 °F 55.2 °F 30.12 in NW 1.0 mph 4.0 mph 69 % 0.00 in
21:47 65.3 °F 54.9 °F 30.12 in Calm   3.0 mph 69 % 0.00 in
21:52 64.9 °F 54.9 °F 30.12 in Calm   2.0 mph 70 % 0.00 in
21:57 64.6 °F 55.0 °F 30.12 in Calm   2.0 mph 71 % 0.00 in
22:02 64.2 °F 54.7 °F 30.12 in Calm   1.0 mph 71 % 0.00 in
22:07 64.0 °F 54.5 °F 30.12 in Calm   1.0 mph 71 % 0.00 in
22:13 63.9 °F 54.3 °F 30.12 in WNW 1.0 mph 3.0 mph 71 % 0.00 in
22:18 63.7 °F 54.1 °F 30.12 in NW 2.0 mph 3.0 mph 71 % 0.00 in
22:21 63.7 °F 54.1 °F 30.12 in Calm   4.0 mph 71 % 0.00 in
22:26 63.5 °F 53.6 °F 30.12 in WNW 1.0 mph 5.0 mph 70 % 0.00 in
22:31 63.5 °F 54.0 °F 30.12 in NNW 1.0 mph 5.0 mph 71 % 0.00 in
22:36 63.3 °F 53.8 °F 30.13 in NW 1.0 mph 5.0 mph 71 % 0.00 in
22:41 63.0 °F 53.4 °F 30.13 in Calm   3.0 mph 71 % 0.00 in
22:46 62.8 °F 53.6 °F 30.12 in Calm   2.0 mph 72 % 0.00 in
22:51 62.2 °F 53.1 °F 30.12 in Calm   2.0 mph 72 % 0.00 in
22:56 62.1 °F 53.2 °F 30.13 in Calm   2.0 mph 73 % 0.00 in
23:01 61.7 °F 53.2 °F 30.13 in WNW 2.0 mph 2.0 mph 74 % 0.00 in
23:06 61.5 °F 52.7 °F 30.13 in Calm   2.0 mph 73 % 0.00 in
23:11 61.5 °F 53.2 °F 30.13 in Calm   2.0 mph 74 % 0.00 in
23:16 61.5 °F 52.7 °F 30.13 in NW 1.0 mph 2.0 mph 73 % 0.00 in
23:21 61.5 °F 52.7 °F 30.13 in Calm   1.0 mph 73 % 0.00 in
23:26 61.5 °F 53.2 °F 30.13 in Calm   1.0 mph 74 % 0.00 in
23:32 61.5 °F 53.2 °F 30.13 in Calm   1.0 mph 74 % 0.00 in
23:37 61.3 °F 53.4 °F 30.13 in Calm   1.0 mph 75 % 0.00 in
23:42 60.8 °F 53.2 °F 30.13 in Calm   1.0 mph 76 % 0.00 in
23:47 60.3 °F 53.1 °F 30.13 in Calm   1.0 mph 77 % 0.00 in
23:52 59.5 °F 52.3 °F 30.13 in Calm     77 % 0.00 in
23:57 58.8 °F 52.3 °F 30.13 in Calm     79 % 0.00 in
Spring, Texas: Villages of Bridgestone
Compliments of Weather Underground - 2.75 mb

Script developed by  Jim McMurry - jmcmurry@mwt.net Adapted for the template by  Wim van der Kuil - Leuven-Template.eu

You find our weather info also at:

UK Metoffice

WeatherCloud

Weather Underground

Mid-South Weather Network

AWEKAS

Citizen Weather Observer Program (CWOP)

HAMweather, WeatherForYou, PWS Weather

Equipment we use:

Weather-station
Davis Vantage Vue

Weather-program
Meteohub

Weather-server
Debian 7.9 x86 (Guest)

Provider
DreamHost

Davis Vantage Vue

Meteohub

Debian 7.9 x86 (Guest)

DreamHost